Time;durP1;ratioP1;P1;durP2;ratioP2;P2;SDS_P1;SDS_P2;PMS_P1;PMS_P2;Temp;Humidity;BMP_temperature;BMP_pressure;BME280_temperature;BME280_humidity;BME280_pressure;Samples;Min_cycle;Max_cycle;Signal;HPM_P1;HPM_P2
2022/06/13 00:01:55;;;;;;;33.53;8.60;;;13.10;99.90;;;;;;6335456;22;20028;-92
2022/06/13 00:04:21;;;;;;;36.30;8.98;;;13.00;99.90;;;;;;6307282;22;20060;-88
2022/06/13 00:06:47;;;;;;;37.63;7.75;;;13.10;99.90;;;;;;6335051;22;20003;-89
2022/06/13 00:09:13;;;;;;;45.97;8.30;;;13.10;99.90;;;;;;6334591;22;19995;-89
2022/06/13 00:11:39;;;;;;;45.50;10.35;;;13.10;99.90;;;;;;6336006;22;20009;-93
2022/06/13 00:14:05;;;;;;;37.83;7.97;;;13.10;99.90;;;;;;6335232;22;20026;-93
2022/06/13 00:16:31;;;;;;;37.35;9.55;;;13.10;99.90;;;;;;6334362;22;20078;-92
2022/06/13 00:18:57;;;;;;;42.45;8.95;;;13.10;99.90;;;;;;6334127;22;20013;-91
2022/06/13 00:21:33;;;;;;;41.67;8.43;;;12.90;99.90;;;;;;6334080;22;20034;-92
2022/06/13 00:24:01;;;;;;;43.13;9.20;;;;;;;;;;6333900;22;20016;-92
2022/06/13 00:26:29;;;;;;;44.10;8.55;;;13.30;99.90;;;;;;6334025;22;20040;-91
2022/06/13 00:28:56;;;;;;;39.65;9.35;;;;;;;;;;6306331;22;20082;-91
2022/06/13 00:31:22;;;;;;;32.05;8.00;;;13.00;99.90;;;;;;6306714;22;20007;-93
2022/06/13 00:33:48;;;;;;;47.60;8.50;;;13.10;99.90;;;;;;6307121;22;20084;-90
2022/06/13 00:36:14;;;;;;;39.65;8.15;;;13.00;99.90;;;;;;6336323;22;20453;-85
2022/06/13 00:38:40;;;;;;;33.50;8.02;;;13.10;99.90;;;;;;6336946;22;20461;-93
2022/06/13 00:41:10;;;;;;;44.85;9.05;;;13.10;99.90;;;;;;6335954;22;20007;-92
2022/06/13 00:43:39;;;;;;;36.10;7.63;;;13.10;99.90;;;;;;6335667;22;19995;-93
2022/06/13 00:46:22;;;;;;;35.80;7.95;;;13.20;99.90;;;;;;6336015;22;20009;-92
2022/06/13 00:48:50;;;;;;;31.33;8.27;;;13.10;99.90;;;;;;6308028;22;20340;-92
2022/06/13 00:51:17;;;;;;;34.72;7.57;;;13.10;99.90;;;;;;6335741;22;20503;-92
2022/06/13 00:53:43;;;;;;;27.98;7.85;;;;;;;;;;6336686;22;20002;-92
2022/06/13 00:56:16;;;;;;;27.00;7.43;;;13.00;99.90;;;;;;6335928;22;20003;-92
2022/06/13 00:58:57;;;;;;;38.38;10.30;;;13.00;99.90;;;;;;6336906;22;20000;-94
2022/06/13 01:01:24;;;;;;;34.42;9.27;;;13.00;99.90;;;;;;6308161;22;20015;-93
2022/06/13 01:03:51;;;;;;;35.22;8.57;;;;;;;;;;6335633;22;20078;-90
2022/06/13 01:06:18;;;;;;;38.67;8.18;;;12.90;99.90;;;;;;6335461;22;20343;-91
2022/06/13 01:08:45;;;;;;;36.57;9.13;;;13.00;99.90;;;;;;6336559;22;19999;-89
2022/06/13 01:11:18;;;;;;;42.22;8.90;;;12.90;99.90;;;;;;6308757;22;20006;-93
2022/06/13 01:13:47;;;;;;;41.30;8.90;;;12.90;99.90;;;;;;6336753;22;20334;-88
2022/06/13 01:16:30;;;;;;;38.55;9.15;;;13.00;99.90;;;;;;6336441;22;19995;-92
2022/06/13 01:19:42;;;;;;;42.67;9.40;;;13.00;99.90;;;;;;6335650;22;20032;-92
2022/06/13 01:22:49;;;;;;;35.60;8.57;;;12.90;99.90;;;;;;6154591;23;20393;-92
2022/06/13 01:25:34;;;;;;;33.33;8.20;;;12.80;99.90;;;;;;6181180;23;20013;-93
2022/06/13 01:28:34;;;;;;;44.50;9.18;;;12.90;99.90;;;;;;6324548;22;20457;-93
2022/06/13 01:31:21;;;;;;;47.08;9.05;;;12.70;99.90;;;;;;6307838;22;20047;-91
2022/06/13 01:34:04;;;;;;;47.20;9.25;;;12.80;99.90;;;;;;6335567;22;20007;-85
2022/06/13 01:36:53;;;;;;;36.28;9.68;;;12.60;99.90;;;;;;6307914;22;20007;-90
2022/06/13 01:39:28;;;;;;;41.20;9.55;;;12.60;99.90;;;;;;6335694;22;20002;-93
2022/06/13 01:41:56;;;;;;;42.65;10.00;;;12.30;99.90;;;;;;6334940;22;20441;-92
2022/06/13 01:44:25;;;;;;;;;;;12.10;99.90;;;;;;6335712;22;19999;-88
2022/06/13 01:46:53;;;;;;;62.13;11.05;;;12.40;99.90;;;;;;6307057;22;19898;-87
2022/06/13 01:49:54;;;;;;;42.95;8.65;;;12.40;99.90;;;;;;6334867;22;19999;-92
2022/06/13 01:52:36;;;;;;;34.75;8.32;;;12.40;99.90;;;;;;6334625;22;19995;-89
2022/06/13 01:55:22;;;;;;;34.47;9.27;;;12.50;99.90;;;;;;6307481;22;20455;-92
2022/06/13 01:57:53;;;;;;;38.20;8.70;;;12.50;99.90;;;;;;6335043;22;20003;-86
2022/06/13 02:00:29;;;;;;;32.30;8.68;;;12.50;99.90;;;;;;6307363;22;20071;-89
2022/06/13 02:02:56;;;;;;;28.00;8.13;;;;;;;;;;6335167;22;20006;-92
2022/06/13 02:05:27;;;;;;;38.83;8.02;;;12.50;99.90;;;;;;6307438;22;20007;-89
2022/06/13 02:08:05;;;;;;;33.50;7.93;;;12.50;99.90;;;;;;6335105;22;20005;-89
2022/06/13 02:10:36;;;;;;;42.72;9.43;;;12.50;99.90;;;;;;6335045;22;20040;-89
2022/06/13 02:13:07;;;;;;;41.08;10.82;;;12.40;99.90;;;;;;6335071;22;20462;-90
2022/06/13 02:15:49;;;;;;;40.00;8.75;;;12.40;99.90;;;;;;6337334;22;20026;-91
2022/06/13 02:18:33;;;;;;;39.80;8.20;;;12.40;99.90;;;;;;6338510;22;20503;-94
2022/06/13 02:21:12;;;;;;;37.70;8.23;;;12.40;99.90;;;;;;6309058;22;20090;-93
2022/06/13 02:23:49;;;;;;;35.97;7.93;;;12.50;99.90;;;;;;6337192;22;20044;-94
2022/06/13 02:26:23;;;;;;;34.88;7.90;;;12.50;99.90;;;;;;6339205;22;19999;-89
2022/06/13 02:28:57;;;;;;;38.22;7.78;;;12.50;99.90;;;;;;6336362;22;19999;-89
2022/06/13 02:31:49;;;;;;;27.50;7.70;;;12.50;99.90;;;;;;6338857;22;19998;-91
2022/06/13 02:34:39;;;;;;;42.97;9.32;;;12.50;99.90;;;;;;6340546;22;20003;-94
2022/06/13 02:37:09;;;;;;;34.17;9.10;;;12.50;99.90;;;;;;6312675;22;20363;-92
2022/06/13 02:39:55;;;;;;;42.38;10.10;;;12.50;99.90;;;;;;6340282;22;20089;-92
2022/06/13 02:42:27;;;;;;;41.92;7.88;;;12.40;99.90;;;;;;6340541;22;20013;-92
2022/06/13 02:45:09;;;;;;;40.38;8.23;;;12.40;99.90;;;;;;6316963;22;20006;-87
2022/06/13 02:47:41;;;;;;;35.05;9.15;;;12.40;99.90;;;;;;6344294;22;20009;-93
2022/06/13 02:50:25;;;;;;;34.53;7.93;;;12.40;99.90;;;;;;6343283;22;20003;-94
2022/06/13 02:53:03;;;;;;;39.63;9.35;;;12.40;99.90;;;;;;6319188;22;19999;-91
2022/06/13 02:55:42;;;;;;;41.00;8.80;;;12.50;99.90;;;;;;6339386;22;20454;-92
2022/06/13 02:58:32;;;;;;;24.75;7.07;;;12.40;99.90;;;;;;6340567;22;20003;-92
2022/06/13 03:01:14;;;;;;;34.67;8.88;;;10.10;99.90;;;;;;6339853;22;20089;-92
2022/06/13 03:04:11;;;;;;;35.13;8.85;;;14.10;99.90;;;;;;6315352;22;20003;-94
2022/06/13 03:07:06;;;;;;;37.08;9.27;;;12.40;99.90;;;;;;6317407;22;19999;-93
2022/06/13 03:09:33;;;;;;;34.92;8.27;;;;;;;;;;6342604;22;20003;-92
2022/06/13 03:12:12;;;;;;;33.85;8.25;;;12.30;99.90;;;;;;6334686;22;20074;-92
2022/06/13 03:14:56;;;;;;;36.63;8.38;;;12.20;99.90;;;;;;6307286;22;20019;-91
2022/06/13 03:17:40;;;;;;;42.85;9.20;;;12.30;99.90;;;;;;6335000;22;20052;-91
2022/06/13 03:20:18;;;;;;;38.63;7.88;;;12.20;99.90;;;;;;6310470;22;20070;-93
2022/06/13 03:22:56;;;;;;;;;;;12.20;99.90;;;;;;6340205;22;20010;-93
2022/06/13 03:26:06;;;;;;;39.03;8.23;;;12.10;99.90;;;;;;6340402;22;20425;-91
2022/06/13 03:28:37;;;;;;;41.25;10.15;;;12.20;99.90;;;;;;6254285;22;20002;-93
2022/06/13 03:31:20;;;;;;;38.78;9.25;;;12.00;99.90;;;;;;6336204;22;20029;-92
2022/06/13 03:33:59;;;;;;;26.67;7.45;;;12.00;99.90;;;;;;6335683;22;19999;-91
2022/06/13 03:36:31;;;;;;;41.13;8.77;;;11.90;99.90;;;;;;6335428;22;19998;-91
2022/06/13 03:39:19;;;;;;;24.75;7.97;;;11.90;99.90;;;;;;6334384;22;19999;-92
2022/06/13 03:41:53;;;;;;;37.03;8.65;;;11.50;99.90;;;;;;6334618;22;20014;-94
2022/06/13 03:44:43;;;;;;;35.03;8.40;;;11.90;99.90;;;;;;6307824;22;20435;-93
2022/06/13 03:47:16;;;;;;;40.88;8.55;;;12.00;99.90;;;;;;6306900;22;20003;-92
2022/06/13 03:49:51;;;;;;;24.95;7.32;;;12.00;99.90;;;;;;6306950;22;20792;-92
2022/06/13 03:52:18;;;;;;;28.75;7.45;;;11.90;99.90;;;;;;6307453;22;20034;-93
2022/06/13 03:54:55;;;;;;;42.17;9.85;;;11.90;99.90;;;;;;6306466;22;20006;-93
2022/06/13 03:57:34;;;;;;;40.28;8.00;;;11.90;99.90;;;;;;6307697;22;20132;-93
2022/06/13 04:00:31;;;;;;;38.08;8.10;;;11.80;99.90;;;;;;6307035;22;20022;-92
2022/06/13 04:02:59;;;;;;;32.05;7.88;;;11.90;99.90;;;;;;6333624;22;20030;-94
2022/06/13 04:05:42;;;;;;;;;;;11.80;99.90;;;;;;6335885;22;20003;-94
2022/06/13 04:08:12;;;;;;;30.35;7.72;;;11.80;99.90;;;;;;6337375;22;19905;-93
2022/06/13 04:10:51;;;;;;;35.80;8.70;;;11.80;99.90;;;;;;6336867;22;20025;-94
2022/06/13 04:13:46;;;;;;;27.65;8.43;;;11.70;99.90;;;;;;6309845;22;20347;-93
2022/06/13 04:16:12;;;;;;;33.42;9.43;;;12.50;99.90;;;;;;6337466;22;20051;-94
2022/06/13 04:18:59;;;;;;;27.48;7.90;;;11.70;99.90;;;;;;6309215;22;20014;-92
2022/06/13 04:21:27;;;;;;;35.87;8.37;;;;;;;;;;6338427;22;20435;-92
2022/06/13 04:24:22;;;;;;;34.60;7.72;;;11.70;99.90;;;;;;6337389;22;20229;-89
2022/06/13 04:27:18;;;;;;;36.78;8.02;;;11.70;99.90;;;;;;6337309;22;20022;-92
2022/06/13 04:29:50;;;;;;;46.63;8.63;;;11.50;99.90;;;;;;6238959;22;20006;-92
2022/06/13 04:32:22;;;;;;;24.83;7.85;;;11.40;99.90;;;;;;6336833;22;20097;-92
2022/06/13 04:34:51;;;;;;;29.48;9.20;;;11.50;99.90;;;;;;6336339;22;19995;-93
2022/06/13 04:37:19;;;;;;;29.92;8.50;;;11.60;99.90;;;;;;6336707;22;19999;-93
2022/06/13 04:39:48;;;;;;;28.73;7.90;;;11.60;99.90;;;;;;6336583;22;20009;-93
2022/06/13 04:42:16;;;;;;;18.52;6.82;;;11.60;99.90;;;;;;6336440;22;20420;-92
2022/06/13 04:44:44;;;;;;;27.83;8.07;;;8.40;99.90;;;;;;6309174;22;20029;-94
2022/06/13 04:47:13;;;;;;;31.40;8.55;;;11.50;99.90;;;;;;6309154;22;20028;-89
2022/06/13 04:49:53;;;;;;;37.05;8.60;;;11.50;99.90;;;;;;6336448;22;20026;-93
2022/06/13 04:52:30;;;;;;;33.10;8.35;;;11.40;99.90;;;;;;6308571;22;20003;-93
2022/06/13 04:55:11;;;;;;;30.97;7.30;;;11.30;99.90;;;;;;6308692;22;20081;-92
2022/06/13 04:57:37;;;;;;;35.50;8.02;;;;;;;;;;6308162;22;20013;-91
2022/06/13 05:00:09;;;;;;;28.73;8.15;;;11.30;99.90;;;;;;6335835;22;20013;-93
2022/06/13 05:02:55;;;;;;;26.30;7.03;;;11.60;99.90;;;;;;6336183;22;20390;-93
2022/06/13 05:05:39;;;;;;;32.25;8.18;;;11.50;99.90;;;;;;6309321;22;20038;-92
2022/06/13 05:08:34;;;;;;;25.42;7.00;;;11.60;99.90;;;;;;6335246;22;20002;-91
2022/06/13 05:11:10;;;;;;;30.10;7.85;;;11.70;99.90;;;;;;6331445;22;19999;-90
2022/06/13 05:13:36;;;;;;;24.25;8.20;;;;;;;;;;6335118;22;19999;-92
2022/06/13 05:16:27;;;;;;;36.65;8.02;;;11.30;99.90;;;;;;6335017;22;19994;-93
2022/06/13 05:19:11;;;;;;;27.60;7.85;;;11.50;99.90;;;;;;6291071;22;20014;-91
2022/06/13 05:21:49;;;;;;;24.50;7.38;;;11.60;99.90;;;;;;6307822;22;20011;-92
2022/06/13 05:24:42;;;;;;;39.03;8.87;;;11.60;99.90;;;;;;6334886;22;20424;-95
2022/06/13 05:27:08;;;;;;;30.58;6.88;;;11.70;99.90;;;;;;6335210;22;19999;-93
2022/06/13 05:29:35;;;;;;;30.50;7.70;;;11.80;99.90;;;;;;6334879;22;19995;-93
2022/06/13 05:32:02;;;;;;;29.10;7.85;;;11.70;99.90;;;;;;6335609;22;20006;-93
2022/06/13 05:34:35;;;;;;;28.23;8.00;;;11.80;99.90;;;;;;6335776;22;20511;-91
2022/06/13 05:37:01;;;;;;;21.98;7.25;;;11.70;99.90;;;;;;6338141;22;20082;-94
2022/06/13 05:39:27;;;;;;;35.30;7.63;;;12.70;99.90;;;;;;6335490;22;19998;-87
2022/06/13 05:41:54;;;;;;;20.92;6.68;;;;;;;;;;6336387;22;20029;-92
2022/06/13 05:44:20;;;;;;;22.38;7.18;;;;;;;;;;6334894;22;20112;-89
2022/06/13 05:46:47;;;;;;;30.45;6.65;;;11.80;99.90;;;;;;6327791;22;19999;-91
2022/06/13 05:49:13;;;;;;;23.02;7.00;;;12.00;99.90;;;;;;6333292;22;20017;-94
2022/06/13 05:51:39;;;;;;;29.73;6.80;;;;;;;;;;6334187;22;20030;-92
2022/06/13 05:54:05;;;;;;;20.88;6.05;;;12.10;99.90;;;;;;6334632;22;20026;-92
2022/06/13 05:56:31;;;;;;;22.50;7.25;;;12.20;99.90;;;;;;6333792;22;20134;-93
2022/06/13 05:58:57;;;;;;;30.55;6.38;;;;;;;;;;6335261;22;20343;-94
2022/06/13 06:01:24;;;;;;;21.50;6.45;;;;;;;;;;6334833;22;20056;-92
2022/06/13 06:03:50;;;;;;;27.08;6.70;;;;;;;;;;6334498;22;19995;-93
2022/06/13 06:06:27;;;;;;;30.88;6.10;;;13.00;99.90;;;;;;6306812;22;20007;-93
2022/06/13 06:08:54;;;;;;;28.20;6.50;;;12.40;99.90;;;;;;6307231;22;20009;-95
2022/06/13 06:11:22;;;;;;;25.10;6.72;;;12.50;99.90;;;;;;6334621;22;20005;-93
2022/06/13 06:13:48;;;;;;;17.88;5.75;;;;;;;;;;6333997;22;20124;-93
2022/06/13 06:16:17;;;;;;;27.13;6.32;;;12.60;99.90;;;;;;6334845;22;19998;-89
2022/06/13 06:18:43;;;;;;;24.63;6.18;;;;;;;;;;6334898;22;20019;-92
2022/06/13 06:21:09;;;;;;;25.70;6.68;;;12.80;99.90;;;;;;6335495;22;20010;-91
2022/06/13 06:23:35;;;;;;;24.08;5.93;;;;;;;;;;6328300;22;19995;-91
2022/06/13 06:26:02;;;;;;;24.33;6.10;;;;;;;;;;6334803;22;20006;-91
2022/06/13 06:28:29;;;;;;;29.55;6.53;;;12.90;99.90;;;;;;6307871;22;20010;-91
2022/06/13 06:30:57;;;;;;;25.15;6.10;;;13.10;99.90;;;;;;6335112;22;20030;-89
2022/06/13 06:33:24;;;;;;;22.83;5.65;;;13.10;99.90;;;;;;6305720;22;20077;-90
2022/06/13 06:35:51;;;;;;;26.48;5.85;;;;;;;;;;6333718;22;20009;-89
2022/06/13 06:38:18;;;;;;;23.17;6.10;;;13.40;99.90;;;;;;6334148;22;20078;-89
2022/06/13 06:40:44;;;;;;;27.08;6.70;;;;;;;;;;6306313;22;20093;-88
2022/06/13 06:43:10;;;;;;;24.90;5.70;;;;;;;;;;6306135;22;20044;-89
2022/06/13 06:45:37;;;;;;;20.02;5.60;;;;;;;;;;6306460;22;20431;-91
2022/06/13 06:48:03;;;;;;;32.22;6.03;;;13.50;99.90;;;;;;6332702;22;20364;-92
2022/06/13 06:50:33;;;;;;;24.52;6.45;;;13.70;99.90;;;;;;6307098;22;20003;-89
2022/06/13 06:53:00;;;;;;;24.73;5.80;;;13.70;99.90;;;;;;6307100;22;20106;-91
2022/06/13 07:00:57;;;;;;;29.98;6.05;;;14.00;99.90;;;;;;6334566;22;20011;-91
2022/06/13 07:03:23;;;;;;;25.90;4.80;;;13.90;99.90;;;;;;6333896;22;20002;-90
2022/06/13 07:05:51;;;;;;;27.00;6.00;;;14.10;99.90;;;;;;6305864;22;20066;-92
2022/06/13 07:08:17;;;;;;;19.85;4.95;;;;;;;;;;6333763;22;20002;-92
2022/06/13 07:10:46;;;;;;;24.10;5.60;;;;;;;;;;6333287;22;19999;-91
2022/06/13 07:13:12;;;;;;;14.35;4.53;;;;;;;;;;6305847;22;20013;-92
2022/06/13 07:15:38;;;;;;;22.45;4.93;;;;;;;;;;6306115;22;20132;-91
2022/06/13 07:18:06;;;;;;;23.80;5.40;;;14.50;99.90;;;;;;6305849;22;20013;-89
2022/06/13 07:20:32;;;;;;;18.27;4.65;;;14.50;99.90;;;;;;6306228;22;20504;-91
2022/06/13 07:22:58;;;;;;;23.58;5.43;;;;;;;;;;6335369;22;19994;-91
2022/06/13 07:25:26;;;;;;;22.13;4.07;;;14.70;99.90;;;;;;6305061;22;20036;-92
2022/06/13 07:27:53;;;;;;;17.80;4.80;;;;;;;;;;6333978;22;20454;-92
2022/06/13 07:30:21;;;;;;;24.88;4.75;;;14.90;99.90;;;;;;6306143;22;19999;-92
2022/06/13 07:32:47;;;;;;;20.15;4.65;;;;;;;;;;6333421;22;20074;-92
2022/06/13 07:35:15;;;;;;;23.80;4.90;;;15.00;99.90;;;;;;6333565;22;19995;-89
2022/06/13 07:40:28;;;;;;;20.17;4.90;;;15.30;99.90;;;;;;6334032;22;20018;-92
2022/06/13 07:42:56;;;;;;;22.45;4.60;;;15.30;99.90;;;;;;6335836;22;20075;-88
2022/06/13 07:45:25;;;;;;;16.25;4.53;;;15.40;99.90;;;;;;6336479;22;19999;-90
2022/06/13 07:47:53;;;;;;;18.85;4.70;;;15.50;99.90;;;;;;6336123;22;20174;-93
2022/06/13 07:50:22;;;;;;;14.02;3.80;;;16.70;99.90;;;;;;6335893;22;19999;-90
2022/06/13 07:52:48;;;;;;;16.02;4.10;;;15.60;99.90;;;;;;6336205;22;20058;-91
2022/06/13 07:55:14;;;;;;;20.67;3.70;;;;;;;;;;6336721;22;20450;-91
2022/06/13 07:57:41;;;;;;;12.75;3.78;;;;;;;;;;6336552;22;20006;-90
2022/06/13 08:00:09;;;;;;;18.55;3.47;;;15.50;99.90;;;;;;6309349;22;20435;-91
2022/06/13 08:02:36;;;;;;;17.67;4.25;;;15.30;99.90;;;;;;6334551;22;20022;-91
2022/06/13 08:05:03;;;;;;;12.57;4.13;;;15.50;99.90;;;;;;6308923;22;20377;-90
2022/06/13 08:07:29;;;;;;;12.38;3.20;;;;;;;;;;6338104;22;20003;-93
2022/06/13 08:09:55;;;;;;;18.08;3.92;;;;;;;;;;6310364;22;19999;-93
2022/06/13 08:12:21;;;;;;;16.83;3.15;;;;;;;;;;6337406;22;20003;-91
2022/06/13 08:14:48;;;;;;;13.13;3.22;;;15.80;99.90;;;;;;6337017;22;20022;-91
2022/06/13 08:17:20;;;;;;;12.85;3.63;;;15.90;99.90;;;;;;6308206;22;20011;-91
2022/06/13 08:19:46;;;;;;;12.85;3.42;;;16.00;99.90;;;;;;6307742;22;20010;-88
2022/06/13 08:22:17;;;;;;;17.52;4.28;;;15.90;99.90;;;;;;6337046;22;20010;-91
2022/06/13 08:24:43;;;;;;;16.05;3.67;;;16.20;99.90;;;;;;6308745;22;20003;-92
2022/06/13 08:27:09;;;;;;;15.82;3.45;;;16.40;99.90;;;;;;6336518;22;20316;-91
2022/06/13 08:29:35;;;;;;;12.00;3.30;;;16.30;99.90;;;;;;6336622;22;19995;-90
2022/06/13 08:32:02;;;;;;;19.48;4.30;;;16.60;99.90;;;;;;6336970;22;20377;-93
2022/06/13 08:34:28;;;;;;;16.13;3.47;;;16.80;99.90;;;;;;6310053;22;20423;-89
2022/06/13 08:36:54;;;;;;;9.00;2.90;;;16.70;99.90;;;;;;6309064;22;20430;-92
2022/06/13 08:39:20;;;;;;;13.10;3.35;;;16.70;99.90;;;;;;6336875;22;19994;-91
2022/06/13 08:42:10;;;;;;;12.38;3.72;;;16.80;99.90;;;;;;6336907;22;20017;-91
2022/06/13 08:44:56;;;;;;;18.73;3.10;;;16.90;99.90;;;;;;6336906;22;19999;-93
2022/06/13 08:47:41;;;;;;;12.07;3.17;;;16.90;99.90;;;;;;6307382;22;20529;-91
2022/06/13 08:50:33;;;;;;;11.07;2.88;;;16.90;99.90;;;;;;6337018;22;20503;-94
2022/06/13 08:53:08;;;;;;;8.68;3.00;;;16.80;99.90;;;;;;6266347;22;20010;-91
2022/06/13 08:55:47;;;;;;;10.57;3.08;;;17.00;99.90;;;;;;6306774;22;20086;-90
2022/06/13 08:58:31;;;;;;;11.70;2.88;;;17.10;99.90;;;;;;6306238;22;20597;-89
2022/06/13 09:00:57;;;;;;;12.52;2.65;;;;;;;;;;6333134;22;20125;-89
2022/06/13 09:03:53;;;;;;;12.98;3.08;;;17.30;99.90;;;;;;6334039;22;20062;-90
2022/06/13 09:06:29;;;;;;;17.40;3.20;;;17.50;99.90;;;;;;6330836;22;20007;-90
2022/06/13 09:08:59;;;;;;;10.10;2.85;;;17.30;99.90;;;;;;6307278;22;20030;-90
2022/06/13 09:11:36;;;;;;;11.85;2.83;;;17.00;99.90;;;;;;6333953;22;20022;-91
2022/06/13 09:14:14;;;;;;;11.27;2.95;;;17.00;99.90;;;;;;6334946;22;20002;-94
2022/06/13 09:16:44;;;;;;;13.85;3.30;;;17.30;99.90;;;;;;6334239;22;19999;-90
2022/06/13 09:19:20;;;;;;;13.60;3.28;;;17.30;99.90;;;;;;6334743;22;20003;-90
2022/06/13 09:22:03;;;;;;;16.33;3.10;;;17.60;99.90;;;;;;6334727;22;20014;-91
2022/06/13 09:24:42;;;;;;;11.70;3.67;;;17.60;99.90;;;;;;6336294;22;19998;-90
2022/06/13 09:27:37;;;;;;;15.88;3.08;;;17.50;99.90;;;;;;6307962;22;20010;-90
2022/06/13 09:30:25;;;;;;;13.38;2.90;;;17.60;97.50;;;;;;6253035;22;19998;-92
2022/06/13 09:32:56;;;;;;;7.80;2.53;;;17.70;99.90;;;;;;6334156;22;20009;-90
2022/06/13 09:35:28;;;;;;;13.73;2.75;;;17.90;99.90;;;;;;6306671;22;20059;-90
2022/06/13 09:37:56;;;;;;;20.98;4.03;;;;;;;;;;6333485;22;20321;-87
2022/06/13 09:40:50;;;;;;;11.43;2.63;;;17.90;99.90;;;;;;6333337;22;20007;-90
2022/06/13 09:43:31;;;;;;;11.52;3.13;;;18.00;99.90;;;;;;6273790;22;20225;-89
2022/06/13 09:46:09;;;;;;;11.35;2.88;;;18.00;97.50;;;;;;6305709;22;20468;-89
2022/06/13 09:48:34;;;;;;;15.48;2.40;;;18.10;99.00;;;;;;6305038;22;20097;-89
2022/06/13 09:51:16;;;;;;;13.25;3.03;;;18.10;99.90;;;;;;6306505;22;20383;-87
2022/06/13 09:53:56;;;;;;;11.93;2.95;;;18.20;93.10;;;;;;6333117;22;19999;-90
2022/06/13 09:56:28;;;;;;;13.65;2.83;;;18.30;98.70;;;;;;6334381;22;19998;-89
2022/06/13 09:59:00;;;;;;;10.43;2.60;;;17.40;96.40;;;;;;6333368;22;20349;-89
2022/06/13 10:01:37;;;;;;;8.23;2.90;;;18.50;95.20;;;;;;6333213;22;20082;-90
2022/06/13 10:04:10;;;;;;;14.27;3.20;;;18.50;97.00;;;;;;6332754;22;20332;-91
2022/06/13 10:06:59;;;;;;;11.30;3.03;;;18.80;98.20;;;;;;6333848;22;19999;-90
2022/06/13 10:09:50;;;;;;;14.68;3.05;;;18.60;93.00;;;;;;6334131;22;20002;-90
2022/06/13 10:12:33;;;;;;;10.25;2.95;;;18.70;97.60;;;;;;6306215;22;20002;-90
2022/06/13 10:15:34;;;;;;;13.55;3.00;;;18.60;93.90;;;;;;6306891;22;20010;-91
2022/06/13 10:18:35;;;;;;;14.18;2.45;;;21.70;94.50;;;;;;6307430;22;20130;-90
2022/06/13 10:21:13;;;;;;;13.55;2.85;;;18.70;95.20;;;;;;6307521;22;20014;-92
2022/06/13 10:23:52;;;;;;;8.63;2.67;;;18.70;93.80;;;;;;6306829;22;20008;-90
2022/06/13 10:26:36;;;;;;;14.30;3.08;;;18.60;95.30;;;;;;6306710;22;20003;-90
2022/06/13 10:29:10;;;;;;;13.57;3.00;;;;;;;;;;6335863;22;20006;-90
2022/06/13 10:31:57;;;;;;;18.25;2.80;;;18.80;95.10;;;;;;6335662;22;20078;-88
2022/06/13 10:34:53;;;;;;;6.80;2.72;;;18.00;97.40;;;;;;6307262;22;20466;-89
2022/06/13 10:37:58;;;;;;;12.32;2.65;;;19.20;91.00;;;;;;6307658;22;20003;-90
2022/06/13 10:40:24;;;;;;;13.15;3.10;;;;;;;;;;6289487;22;20339;-90
2022/06/13 10:42:50;;;;;;;11.32;2.78;;;;;;;;;;6307447;22;20007;-90
2022/06/13 10:45:16;;;;;;;11.63;2.67;;;;;;;;;;6306913;22;20439;-89
2022/06/13 10:48:12;;;;;;;12.80;2.95;;;19.40;93.20;;;;;;6334499;22;20059;-89
2022/06/13 10:50:49;;;;;;;9.80;2.70;;;19.10;85.80;;;;;;6307071;22;20003;-89
2022/06/13 10:53:24;;;;;;;14.80;3.05;;;19.10;85.50;;;;;;6335426;22;20048;-92
2022/06/13 10:55:54;;;;;;;11.30;3.03;;;19.40;94.10;;;;;;6334668;22;20003;-90
2022/06/13 10:58:36;;;;;;;9.80;3.10;;;19.40;94.70;;;;;;6335130;22;19995;-91
2022/06/13 11:01:02;;;;;;;15.30;3.10;;;;;;;;;;6335582;22;20007;-93
2022/06/13 11:03:28;;;;;;;15.02;3.35;;;;;;;;;;6333499;22;20339;-92
2022/06/13 11:05:59;;;;;;;11.90;3.08;;;19.80;92.00;;;;;;6333823;22;20009;-92
2022/06/13 11:08:27;;;;;;;13.15;2.55;;;19.60;89.20;;;;;;6333726;22;20352;-92
2022/06/13 11:11:13;;;;;;;12.13;3.03;;;19.80;89.10;;;;;;6334041;22;20442;-91
2022/06/13 11:13:41;;;;;;;16.25;3.13;;;19.70;88.20;;;;;;6333948;22;20474;-91
2022/06/13 11:25:02;;;;;;;14.02;3.22;;;;;;;;;;6332011;22;20009;-88
2022/06/13 11:27:40;;;;;;;11.88;3.63;;;20.20;91.90;;;;;;6303651;22;20067;-88
2022/06/13 11:30:24;;;;;;;12.30;2.88;;;20.20;87.70;;;;;;6331460;22;20332;-90
2022/06/13 11:33:14;;;;;;;14.73;3.33;;;20.10;83.60;;;;;;6303857;22;20048;-89
2022/06/13 11:35:47;;;;;;;14.32;2.95;;;20.10;90.20;;;;;;6303709;22;20014;-89
2022/06/13 11:38:17;;;;;;;10.90;2.80;;;19.80;84.60;;;;;;6331584;22;20049;-89
2022/06/13 11:40:45;;;;;;;10.02;2.80;;;19.80;80.80;;;;;;6305007;22;20446;-87
2022/06/13 11:43:31;;;;;;;15.27;3.88;;;19.80;81.80;;;;;;6305724;22;20007;-89
2022/06/13 11:46:00;;;;;;;14.98;2.95;;;19.90;87.70;;;;;;6333807;22;20008;-90
2022/06/13 11:48:28;;;;;;;11.50;3.20;;;20.10;91.00;;;;;;6333818;22;20151;-88
2022/06/13 11:50:57;;;;;;;13.98;3.00;;;20.10;92.20;;;;;;6331822;22;20041;-87
2022/06/13 11:53:38;;;;;;;16.83;3.20;;;20.50;91.00;;;;;;6298585;22;20007;-89
2022/06/13 11:56:19;;;;;;;13.35;3.20;;;20.50;91.60;;;;;;6331357;22;20006;-89
2022/06/13 11:58:48;;;;;;;10.93;2.75;;;20.70;90.40;;;;;;6331128;22;20003;-87
2022/06/13 12:01:30;;;;;;;16.83;3.60;;;20.30;84.70;;;;;;6303078;22;20022;-88
2022/06/13 12:04:18;;;;;;;14.38;3.13;;;20.30;87.50;;;;;;6302307;22;19999;-90
2022/06/13 12:06:47;;;;;;;;;;;20.30;88.00;;;;;;6302297;22;20021;-89
2022/06/13 12:09:24;;;;;;;13.23;2.80;;;20.60;88.60;;;;;;6330384;22;19947;-91
2022/06/13 12:11:58;;;;;;;13.60;3.38;;;20.50;89.60;;;;;;6302605;22;19999;-90
2022/06/13 12:14:29;;;;;;;14.27;3.72;;;20.70;90.40;;;;;;6303136;22;20060;-90
2022/06/13 12:17:23;;;;;;;9.60;3.15;;;20.60;88.20;;;;;;6302716;22;20237;-88
2022/06/13 12:20:04;;;;;;;13.18;3.30;;;20.40;77.20;;;;;;6302634;22;20015;-89
2022/06/13 12:22:46;;;;;;;11.27;2.90;;;20.20;78.80;;;;;;6302412;22;20015;-90
2022/06/13 12:25:41;;;;;;;12.32;3.03;;;20.30;84.00;;;;;;6302199;22;20007;-87
2022/06/13 12:28:07;;;;;;;16.50;3.60;;;20.60;88.70;;;;;;6302605;22;20088;-88
2022/06/13 12:30:49;;;;;;;14.98;3.53;;;20.50;83.20;;;;;;6304365;22;20007;-90
2022/06/13 12:33:27;;;;;;;15.25;3.33;;;20.60;90.40;;;;;;6303518;22;20439;-90
2022/06/13 12:35:55;;;;;;;13.32;3.40;;;;;;;;;;6303786;22;20003;-88
2022/06/13 12:38:39;;;;;;;12.18;3.38;;;20.60;80.70;;;;;;6304306;22;20007;-90
2022/06/13 12:41:25;;;;;;;9.43;2.83;;;22.00;83.00;;;;;;6303918;22;20021;-90
2022/06/13 12:43:51;;;;;;;15.98;3.42;;;;;;;;;;6303134;22;20343;-90
2022/06/13 12:46:57;;;;;;;11.95;3.03;;;20.90;83.30;;;;;;6303264;22;20453;-89
2022/06/13 12:49:51;;;;;;;9.90;3.03;;;20.30;85.80;;;;;;6304062;22;20457;-89
2022/06/13 12:52:38;;;;;;;10.52;3.22;;;20.60;84.00;;;;;;6331520;22;20116;-91
2022/06/13 12:55:18;;;;;;;11.30;3.03;;;20.90;91.80;;;;;;6305009;22;20052;-89
2022/06/13 12:57:56;;;;;;;7.50;2.90;;;21.20;90.50;;;;;;6323552;22;20011;-88
2022/06/13 13:00:35;;;;;;;13.05;3.40;;;21.30;84.30;;;;;;6301861;22;20006;-92
2022/06/13 13:03:06;;;;;;;11.18;3.17;;;20.80;78.90;;;;;;6332155;22;20007;-92
2022/06/13 13:05:56;;;;;;;14.35;3.28;;;21.40;79.20;;;;;;6304572;22;20003;-91
2022/06/13 13:08:42;;;;;;;15.52;3.13;;;21.20;83.90;;;;;;6304836;22;20013;-91
2022/06/13 13:11:25;;;;;;;15.60;3.40;;;21.00;83.30;;;;;;6304720;22;20060;-90
2022/06/13 13:14:24;;;;;;;10.10;2.72;;;21.00;74.80;;;;;;6303945;22;20098;-90
2022/06/13 13:17:10;;;;;;;16.55;3.60;;;20.90;77.50;;;;;;6266283;22;20003;-92
2022/06/13 13:19:45;;;;;;;11.50;3.17;;;21.10;74.40;;;;;;6332448;22;20007;-90
2022/06/13 13:22:17;;;;;;;8.98;2.50;;;21.20;79.30;;;;;;6304016;22;20466;-91
2022/06/13 13:25:01;;;;;;;14.07;2.90;;;21.40;75.30;;;;;;6308800;22;20003;-92
2022/06/13 13:27:41;;;;;;;9.25;2.72;;;21.30;76.40;;;;;;6333971;22;20002;-92
2022/06/13 13:30:25;;;;;;;9.93;3.15;;;21.20;74.60;;;;;;6315260;22;20010;-88
2022/06/13 13:32:51;;;;;;;14.77;3.38;;;;;;;;;;6307342;22;20597;-90
2022/06/13 13:35:44;;;;;;;9.60;3.22;;;21.70;76.90;;;;;;6306598;22;20010;-90
2022/06/13 13:38:20;;;;;;;17.27;3.53;;;21.70;79.70;;;;;;6307262;22;20009;-90
2022/06/13 13:41:15;;;;;;;14.57;3.30;;;21.50;75.20;;;;;;6334327;22;20185;-89
2022/06/13 13:44:03;;;;;;;14.23;3.40;;;21.50;75.10;;;;;;6306835;22;20003;-92
2022/06/13 13:46:42;;;;;;;11.85;3.38;;;21.50;73.60;;;;;;6334906;22;19998;-90
2022/06/13 13:49:28;;;;;;;12.80;3.15;;;22.30;81.90;;;;;;6336801;22;19999;-92
2022/06/13 13:52:07;;;;;;;16.17;3.42;;;22.00;77.10;;;;;;6306390;22;20011;-91
2022/06/13 13:54:50;;;;;;;11.20;3.05;;;22.00;76.20;;;;;;6309004;22;20013;-93